In Rescue
 
Open Full Screen Window  High Contrast Mode
Wind Gusting 00 knots
06
April 18, 2024 8:15 PM PDT
Weather Information
Wind Direction
  250 °
Wind Speed
  06 kt (7 mph)
Wind Gust
  00 kt (0 mph)
Altimeter
29.96 in
Visibility
8 SM
Temperature
11° C
52° F
Dewpoint
09° C
48° F
Humidity
87%
Sky Condition
Clear
VFR

METAR KCVH 190315Z AUTO 25006KT 8SM CLR 11/09 A2996 RMK A01

FAA Disclaimer: The data displayed is for advisory purposes only and is not to be used for flight planning or operations.